sensor_id;sensor_type;location;lat;lon;timestamp;pressure;altitude;pressure_sealevel;temperature;humidity
44481;BME280;30184;42.018;23.670;2023-02-13T00:01:33;93011.31;;;-1.71;73.00
44481;BME280;30184;42.018;23.670;2023-02-13T00:04:02;92960.78;;;-2.52;72.90
44481;BME280;30184;42.018;23.670;2023-02-13T00:06:33;93012.25;;;-1.76;72.99
44481;BME280;30184;42.018;23.670;2023-02-13T00:09:02;92853.47;;;-3.46;72.70
44481;BME280;30184;42.018;23.670;2023-02-13T00:11:33;92862.84;;;-3.31;72.76
44481;BME280;30184;42.018;23.670;2023-02-13T00:14:02;93044.84;;;-1.79;72.47
44481;BME280;30184;42.018;23.670;2023-02-13T00:16:32;92936.59;;;-3.68;72.06
44481;BME280;30184;42.018;23.670;2023-02-13T00:19:01;93014.78;;;-1.79;71.74
44481;BME280;30184;42.018;23.670;2023-02-13T00:21:30;93019.94;;;-1.83;71.45
44481;BME280;30184;42.018;23.670;2023-02-13T00:24:00;92970.94;;;-2.63;71.56
44481;BME280;30184;42.018;23.670;2023-02-13T00:26:29;92960.78;;;-2.52;71.68
44481;BME280;30184;42.018;23.670;2023-02-13T00:28:58;93022.31;;;-1.90;72.03
44481;BME280;30184;42.018;23.670;2023-02-13T00:31:26;92960.16;;;-2.32;72.33
44481;BME280;30184;42.018;23.670;2023-02-13T00:33:56;93013.25;;;-1.98;71.66
44481;BME280;30184;42.018;23.670;2023-02-13T00:36:26;93026.88;;;-1.99;71.39
44481;BME280;30184;42.018;23.670;2023-02-13T00:38:55;93091.34;;;-2.02;71.75
44481;BME280;30184;42.018;23.670;2023-02-13T00:41:26;93023.59;;;-2.05;71.95
44481;BME280;30184;42.018;23.670;2023-02-13T00:43:55;93025.78;;;-2.07;71.90
44481;BME280;30184;42.018;23.670;2023-02-13T00:46:24;93030.19;;;-2.37;71.64
44481;BME280;30184;42.018;23.670;2023-02-13T00:48:53;93018.75;;;-2.11;71.73
44481;BME280;30184;42.018;23.670;2023-02-13T00:51:22;93017.19;;;-2.12;71.89
44481;BME280;30184;42.018;23.670;2023-02-13T00:53:51;93023.94;;;-2.15;72.10
44481;BME280;30184;42.018;23.670;2023-02-13T00:56:20;92947.03;;;-2.89;72.14
44481;BME280;30184;42.018;23.670;2023-02-13T00:58:50;93023.78;;;-2.18;72.21
44481;BME280;30184;42.018;23.670;2023-02-13T01:01:19;92871.56;;;-3.14;72.70
44481;BME280;30184;42.018;23.670;2023-02-13T01:03:48;93025.81;;;-2.24;72.73
44481;BME280;30184;42.018;23.670;2023-02-13T01:06:18;92890.63;;;-3.29;72.78
44481;BME280;30184;42.018;23.670;2023-02-13T01:08:46;93027.06;;;-2.30;72.88
44481;BME280;30184;42.018;23.670;2023-02-13T01:11:15;93024.25;;;-2.34;72.70
44481;BME280;30184;42.018;23.670;2023-02-13T01:13:45;92921.25;;;-3.06;72.89
44481;BME280;30184;42.018;23.670;2023-02-13T01:16:15;93035.34;;;-2.40;72.86
44481;BME280;30184;42.018;23.670;2023-02-13T01:18:44;93029.88;;;-2.44;73.15
44481;BME280;30184;42.018;23.670;2023-02-13T01:21:16;93017.06;;;-2.50;73.22
44481;BME280;30184;42.018;23.670;2023-02-13T01:23:45;93042.69;;;-2.54;72.72
44481;BME280;30184;42.018;23.670;2023-02-13T01:26:18;93001.56;;;-2.74;73.00
44481;BME280;30184;42.018;23.670;2023-02-13T01:28:51;92988.94;;;-3.43;72.64
44481;BME280;30184;42.018;23.670;2023-02-13T01:31:22;93010.50;;;-2.79;72.69
44481;BME280;30184;42.018;23.670;2023-02-13T01:33:51;93029.09;;;-2.70;73.05
44481;BME280;30184;42.018;23.670;2023-02-13T01:36:21;92962.00;;;-3.19;72.97
44481;BME280;30184;42.018;23.670;2023-02-13T01:38:52;93032.06;;;-2.80;73.52
44481;BME280;30184;42.018;23.670;2023-02-13T01:41:24;93033.44;;;-2.83;73.37
44481;BME280;30184;42.018;23.670;2023-02-13T01:43:55;92926.66;;;-4.02;73.44
44481;BME280;30184;42.018;23.670;2023-02-13T01:46:28;93019.91;;;-3.69;73.47
44481;BME280;30184;42.018;23.670;2023-02-13T01:49:02;93139.81;;;-2.96;73.60
44481;BME280;30184;42.018;23.670;2023-02-13T01:51:34;93037.34;;;-2.97;73.68
44481;BME280;30184;42.018;23.670;2023-02-13T01:54:06;93039.53;;;-2.99;73.64
44481;BME280;30184;42.018;23.670;2023-02-13T01:56:40;93037.47;;;-3.03;73.53
44481;BME280;30184;42.018;23.670;2023-02-13T01:59:16;92864.53;;;-4.18;73.27
44481;BME280;30184;42.018;23.670;2023-02-13T02:01:49;93039.63;;;-3.13;73.39
44481;BME280;30184;42.018;23.670;2023-02-13T02:04:21;93037.63;;;-3.16;73.41
44481;BME280;30184;42.018;23.670;2023-02-13T02:06:53;93039.31;;;-3.20;73.34
44481;BME280;30184;42.018;23.670;2023-02-13T02:09:31;93043.03;;;-3.21;73.43
44481;BME280;30184;42.018;23.670;2023-02-13T02:12:06;92916.84;;;-4.32;73.55
44481;BME280;30184;42.018;23.670;2023-02-13T02:14:39;93046.94;;;-3.27;73.75
44481;BME280;30184;42.018;23.670;2023-02-13T02:17:11;93040.66;;;-3.31;73.88
44481;BME280;30184;42.018;23.670;2023-02-13T02:19:45;92984.81;;;-4.05;73.77
44481;BME280;30184;42.018;23.670;2023-02-13T02:22:41;93003.41;;;-3.66;73.50
44481;BME280;30184;42.018;23.670;2023-02-13T02:28:19;93059.06;;;-3.44;73.70
44481;BME280;30184;42.018;23.670;2023-02-13T02:31:18;93054.34;;;-3.47;73.67
44481;BME280;30184;42.018;23.670;2023-02-13T02:34:05;93038.72;;;-3.88;73.85
44481;BME280;30184;42.018;23.670;2023-02-13T02:36:54;93048.28;;;-3.78;74.02
44481;BME280;30184;42.018;23.670;2023-02-13T02:39:37;93023.47;;;-3.82;73.91
44481;BME280;30184;42.018;23.670;2023-02-13T02:42:18;93066.25;;;-3.75;73.86
44481;BME280;30184;42.018;23.670;2023-02-13T02:44:57;93071.59;;;-3.66;74.18
44481;BME280;30184;42.018;23.670;2023-02-13T02:47:32;93002.50;;;-4.45;74.28
44481;BME280;30184;42.018;23.670;2023-02-13T02:50:29;93069.69;;;-3.74;74.67
44481;BME280;30184;42.018;23.670;2023-02-13T02:53:08;93075.88;;;-3.79;74.93
44481;BME280;30184;42.018;23.670;2023-02-13T02:55:43;93059.88;;;-3.96;75.07
44481;BME280;30184;42.018;23.670;2023-02-13T02:58:18;93088.00;;;-3.87;75.17
44481;BME280;30184;42.018;23.670;2023-02-13T03:01:09;93035.66;;;-4.26;75.33
44481;BME280;30184;42.018;23.670;2023-02-13T03:03:58;93077.59;;;-4.50;75.25
44481;BME280;30184;42.018;23.670;2023-02-13T03:06:49;93095.75;;;-3.99;75.14
44481;BME280;30184;42.018;23.670;2023-02-13T03:09:24;93097.44;;;-4.03;75.50
44481;BME280;30184;42.018;23.670;2023-02-13T03:12:19;93101.47;;;-4.05;75.63
44481;BME280;30184;42.018;23.670;2023-02-13T03:15:09;93106.09;;;-4.11;76.29
44481;BME280;30184;42.018;23.670;2023-02-13T03:17:38;93105.63;;;-4.13;75.91
44481;BME280;30184;42.018;23.670;2023-02-13T03:20:32;93011.16;;;-4.76;75.61
44481;BME280;30184;42.018;23.670;2023-02-13T03:23:25;93056.81;;;-4.93;75.97
44481;BME280;30184;42.018;23.670;2023-02-13T03:26:16;93128.97;;;-4.37;76.17
44481;BME280;30184;42.018;23.670;2023-02-13T03:29:07;93110.97;;;-4.27;76.18
44481;BME280;30184;42.018;23.670;2023-02-13T03:32:03;93102.53;;;-4.29;76.01
44481;BME280;30184;42.018;23.670;2023-02-13T03:34:37;93109.22;;;-4.31;75.95
44481;BME280;30184;42.018;23.670;2023-02-13T03:37:27;93115.09;;;-4.34;76.15
44481;BME280;30184;42.018;23.670;2023-02-13T03:40:18;92962.06;;;-5.68;76.12
44481;BME280;30184;42.018;23.670;2023-02-13T03:42:52;93113.19;;;-4.42;76.29
44481;BME280;30184;42.018;23.670;2023-02-13T03:45:30;93108.78;;;-4.47;76.46
44481;BME280;30184;42.018;23.670;2023-02-13T03:48:20;93107.03;;;-4.52;76.81
44481;BME280;30184;42.018;23.670;2023-02-13T03:51:09;93110.75;;;-4.53;76.78
44481;BME280;30184;42.018;23.670;2023-02-13T03:53:41;93108.63;;;-4.64;76.73
44481;BME280;30184;42.018;23.670;2023-02-13T03:56:14;93123.03;;;-4.57;76.57
44481;BME280;30184;42.018;23.670;2023-02-13T03:59:04;93126.56;;;-4.61;76.88
44481;BME280;30184;42.018;23.670;2023-02-13T04:01:50;93134.56;;;-5.02;76.88
44481;BME280;30184;42.018;23.670;2023-02-13T04:04:27;93056.63;;;-5.37;76.93
44481;BME280;30184;42.018;23.670;2023-02-13T04:07:01;93126.19;;;-4.68;77.23
44481;BME280;30184;42.018;23.670;2023-02-13T04:09:32;93124.44;;;-4.73;76.98
44481;BME280;30184;42.018;23.670;2023-02-13T04:12:11;93133.16;;;-4.72;77.05
44481;BME280;30184;42.018;23.670;2023-02-13T04:14:48;93106.78;;;-4.91;76.82
44481;BME280;30184;42.018;23.670;2023-02-13T04:17:23;93023.28;;;-5.88;76.72
44481;BME280;30184;42.018;23.670;2023-02-13T04:19:54;93139.25;;;-4.85;77.13
44481;BME280;30184;42.018;23.670;2023-02-13T04:22:23;93136.41;;;-4.89;77.04
44481;BME280;30184;42.018;23.670;2023-02-13T04:24:53;93157.41;;;-4.93;77.13
44481;BME280;30184;42.018;23.670;2023-02-13T04:27:24;93038.13;;;-5.78;76.79
44481;BME280;30184;42.018;23.670;2023-02-13T04:29:55;93064.50;;;-5.59;77.25
44481;BME280;30184;42.018;23.670;2023-02-13T04:32:24;93144.47;;;-4.94;77.16
44481;BME280;30184;42.018;23.670;2023-02-13T04:34:53;93153.78;;;-4.97;77.33
44481;BME280;30184;42.018;23.670;2023-02-13T04:37:22;93147.69;;;-4.97;77.43
44481;BME280;30184;42.018;23.670;2023-02-13T04:39:51;93145.63;;;-5.00;77.67
44481;BME280;30184;42.018;23.670;2023-02-13T04:42:20;93138.78;;;-5.01;77.43
44481;BME280;30184;42.018;23.670;2023-02-13T04:44:50;93139.56;;;-5.01;77.22
44481;BME280;30184;42.018;23.670;2023-02-13T04:47:19;93142.50;;;-5.02;77.07
44481;BME280;30184;42.018;23.670;2023-02-13T04:49:48;93147.59;;;-5.06;77.44
44481;BME280;30184;42.018;23.670;2023-02-13T04:52:17;93139.44;;;-5.09;76.92
44481;BME280;30184;42.018;23.670;2023-02-13T04:54:46;93129.94;;;-5.24;76.78
44481;BME280;30184;42.018;23.670;2023-02-13T04:57:15;93157.22;;;-5.10;77.22
44481;BME280;30184;42.018;23.670;2023-02-13T04:59:44;93148.78;;;-5.12;77.13
44481;BME280;30184;42.018;23.670;2023-02-13T05:02:14;93160.72;;;-5.14;76.97
44481;BME280;30184;42.018;23.670;2023-02-13T05:04:43;93110.97;;;-5.86;76.96
44481;BME280;30184;42.018;23.670;2023-02-13T05:07:12;93098.91;;;-5.92;77.10
44481;BME280;30184;42.018;23.670;2023-02-13T05:09:41;93162.09;;;-5.17;77.30
44481;BME280;30184;42.018;23.670;2023-02-13T05:12:11;93157.41;;;-5.20;77.15
44481;BME280;30184;42.018;23.670;2023-02-13T05:14:40;93040.38;;;-6.13;76.61
44481;BME280;30184;42.018;23.670;2023-02-13T05:17:12;93165.31;;;-5.34;76.93
44481;BME280;30184;42.018;23.670;2023-02-13T05:19:42;93188.06;;;-5.33;77.33
44481;BME280;30184;42.018;23.670;2023-02-13T05:22:12;93176.19;;;-5.35;77.38
44481;BME280;30184;42.018;23.670;2023-02-13T05:24:58;93183.84;;;-5.34;77.31
44481;BME280;30184;42.018;23.670;2023-02-13T05:27:30;93176.19;;;-5.35;77.27
44481;BME280;30184;42.018;23.670;2023-02-13T05:29:59;93179.91;;;-5.36;77.15
44481;BME280;30184;42.018;23.670;2023-02-13T05:32:29;93184.72;;;-5.38;77.26
44481;BME280;30184;42.018;23.670;2023-02-13T05:34:59;93045.09;;;-6.61;77.18
44481;BME280;30184;42.018;23.670;2023-02-13T05:37:31;93184.63;;;-5.47;77.61
44481;BME280;30184;42.018;23.670;2023-02-13T05:40:00;92988.22;;;-7.04;77.29
44481;BME280;30184;42.018;23.670;2023-02-13T05:42:29;93188.22;;;-5.43;77.62
44481;BME280;30184;42.018;23.670;2023-02-13T05:44:58;93191.66;;;-5.42;77.70
44481;BME280;30184;42.018;23.670;2023-02-13T05:47:27;93187.94;;;-5.41;77.83
44481;BME280;30184;42.018;23.670;2023-02-13T05:49:56;93184.22;;;-5.40;78.05
44481;BME280;30184;42.018;23.670;2023-02-13T05:52:26;93185.50;;;-5.38;77.94
44481;BME280;30184;42.018;23.670;2023-02-13T05:54:55;93092.72;;;-6.01;77.86
44481;BME280;30184;42.018;23.670;2023-02-13T05:57:24;93187.84;;;-5.36;78.44
44481;BME280;30184;42.018;23.670;2023-02-13T05:59:53;93076.75;;;-6.10;77.59
44481;BME280;30184;42.018;23.670;2023-02-13T06:02:23;93185.31;;;-5.41;77.42
44481;BME280;30184;42.018;23.670;2023-02-13T06:04:52;93185.81;;;-5.39;77.52
44481;BME280;30184;42.018;23.670;2023-02-13T06:07:22;93200.28;;;-5.37;77.65
44481;BME280;30184;42.018;23.670;2023-02-13T06:09:52;93178.81;;;-5.49;78.03
44481;BME280;30184;42.018;23.670;2023-02-13T06:12:21;93025.50;;;-6.92;78.55
44481;BME280;30184;42.018;23.670;2023-02-13T06:14:50;93138.09;;;-5.94;78.68
44481;BME280;30184;42.018;23.670;2023-02-13T06:17:19;93073.91;;;-6.46;78.59
44481;BME280;30184;42.018;23.670;2023-02-13T06:19:48;93190.13;;;-5.30;78.82
44481;BME280;30184;42.018;23.670;2023-02-13T06:22:17;93040.13;;;-6.81;77.63
44481;BME280;30184;42.018;23.670;2023-02-13T06:24:46;93171.56;;;-5.57;77.55
44481;BME280;30184;42.018;23.670;2023-02-13T06:27:17;93198.75;;;-5.24;77.98
44481;BME280;30184;42.018;23.670;2023-02-13T06:29:46;93192.38;;;-5.23;78.22
44481;BME280;30184;42.018;23.670;2023-02-13T06:32:15;93120.88;;;-5.78;78.23
44481;BME280;30184;42.018;23.670;2023-02-13T06:34:43;93194.13;;;-5.18;78.57
44481;BME280;30184;42.018;23.670;2023-02-13T06:37:13;93198.56;;;-5.14;78.51
44481;BME280;30184;42.018;23.670;2023-02-13T06:39:42;93205.84;;;-5.06;78.68
44481;BME280;30184;42.018;23.670;2023-02-13T06:42:12;93195.25;;;-4.92;78.72
44481;BME280;30184;42.018;23.670;2023-02-13T06:44:42;93193.09;;;-4.76;78.69
44481;BME280;30184;42.018;23.670;2023-02-13T06:47:11;93193.47;;;-4.56;78.64
44481;BME280;30184;42.018;23.670;2023-02-13T06:49:40;93180.16;;;-4.92;77.94
44481;BME280;30184;42.018;23.670;2023-02-13T06:52:10;93191.16;;;-4.21;77.42
44481;BME280;30184;42.018;23.670;2023-02-13T06:54:39;93061.94;;;-5.10;77.12
44481;BME280;30184;42.018;23.670;2023-02-13T06:57:14;92996.97;;;-5.30;76.66
44481;BME280;30184;42.018;23.670;2023-02-13T06:59:45;93051.69;;;-4.89;76.18
44481;BME280;30184;42.018;23.670;2023-02-13T07:02:14;93187.41;;;-3.40;75.73
44481;BME280;30184;42.018;23.670;2023-02-13T07:04:43;93181.09;;;-3.21;75.14
44481;BME280;30184;42.018;23.670;2023-02-13T07:07:11;93172.59;;;-3.01;74.55
44481;BME280;30184;42.018;23.670;2023-02-13T07:09:41;93170.03;;;-2.84;74.25
44481;BME280;30184;42.018;23.670;2023-02-13T07:12:10;93095.25;;;-3.17;73.73
44481;BME280;30184;42.018;23.670;2023-02-13T07:14:39;93158.28;;;-2.43;73.50
44481;BME280;30184;42.018;23.670;2023-02-13T07:17:09;93083.28;;;-2.97;73.16
44481;BME280;30184;42.018;23.670;2023-02-13T07:19:38;93158.31;;;-2.00;72.72
44481;BME280;30184;42.018;23.670;2023-02-13T07:22:07;93133.59;;;-1.92;71.99
44481;BME280;30184;42.018;23.670;2023-02-13T07:24:36;93139.81;;;-1.62;70.97
44481;BME280;30184;42.018;23.670;2023-02-13T07:27:06;93118.88;;;-1.81;69.77
44481;BME280;30184;42.018;23.670;2023-02-13T07:29:36;93126.66;;;-1.50;70.15
44481;BME280;30184;42.018;23.670;2023-02-13T07:32:05;92997.81;;;-2.47;69.81
44481;BME280;30184;42.018;23.670;2023-02-13T07:34:37;93111.94;;;-1.56;69.43
44481;BME280;30184;42.018;23.670;2023-02-13T07:37:10;92955.88;;;-2.16;68.53
44481;BME280;30184;42.018;23.670;2023-02-13T07:39:39;93097.31;;;-0.86;67.92
44481;BME280;30184;42.018;23.670;2023-02-13T07:42:08;93132.81;;;-0.44;67.24
44481;BME280;30184;42.018;23.670;2023-02-13T07:44:37;93135.53;;;-0.23;66.90
44481;BME280;30184;42.018;23.670;2023-02-13T07:47:06;93129.03;;;-0.14;65.66
44481;BME280;30184;42.018;23.670;2023-02-13T07:49:36;93127.03;;;0.04;65.93
44481;BME280;30184;42.018;23.670;2023-02-13T07:52:05;93118.41;;;0.19;64.90
44481;BME280;30184;42.018;23.670;2023-02-13T07:54:35;93045.88;;;-0.37;64.19
44481;BME280;30184;42.018;23.670;2023-02-13T07:57:14;93128.81;;;0.54;63.19
44481;BME280;30184;42.018;23.670;2023-02-13T07:59:44;92833.00;;;-1.42;62.51
44481;BME280;30184;42.018;23.670;2023-02-13T08:02:13;93124.22;;;0.87;62.21
44481;BME280;30184;42.018;23.670;2023-02-13T08:04:44;93104.41;;;0.43;61.00
44481;BME280;30184;42.018;23.670;2023-02-13T08:07:15;93117.69;;;1.21;59.14
44481;BME280;30184;42.018;23.670;2023-02-13T08:09:45;93115.25;;;1.40;58.41
44481;BME280;30184;42.018;23.670;2023-02-13T08:12:34;93073.25;;;1.41;58.75
44481;BME280;30184;42.018;23.670;2023-02-13T08:15:04;93112.00;;;1.83;56.72
44481;BME280;30184;42.018;23.670;2023-02-13T08:17:33;92983.34;;;1.24;57.09
44481;BME280;30184;42.018;23.670;2023-02-13T08:20:06;93141.41;;;2.20;56.78
44481;BME280;30184;42.018;23.670;2023-02-13T08:22:36;93082.06;;;2.06;56.68
44481;BME280;30184;42.018;23.670;2023-02-13T08:25:06;93045.03;;;1.56;55.75
44481;BME280;30184;42.018;23.670;2023-02-13T08:27:35;93011.88;;;2.12;54.87
44481;BME280;30184;42.018;23.670;2023-02-13T08:30:05;93100.28;;;2.84;54.06
44481;BME280;30184;42.018;23.670;2023-02-13T08:32:34;93101.75;;;2.97;53.40
44481;BME280;30184;42.018;23.670;2023-02-13T08:35:20;93085.53;;;3.21;53.17
44481;BME280;30184;42.018;23.670;2023-02-13T08:37:53;93073.22;;;3.36;53.10
44481;BME280;30184;42.018;23.670;2023-02-13T08:40:22;93063.69;;;3.38;52.68
44481;BME280;30184;42.018;23.670;2023-02-13T08:42:51;93082.09;;;3.71;51.40
44481;BME280;30184;42.018;23.670;2023-02-13T08:45:22;93073.94;;;3.84;50.46
44481;BME280;30184;42.018;23.670;2023-02-13T08:47:54;93075.78;;;3.99;49.94
44481;BME280;30184;42.018;23.670;2023-02-13T08:50:26;93073.31;;;4.09;49.05
44481;BME280;30184;42.018;23.670;2023-02-13T08:52:57;92954.56;;;3.62;49.24
44481;BME280;30184;42.018;23.670;2023-02-13T08:55:27;93059.22;;;4.51;49.35
44481;BME280;30184;42.018;23.670;2023-02-13T08:57:58;92971.97;;;3.87;48.42
44481;BME280;30184;42.018;23.670;2023-02-13T09:00:28;93022.47;;;4.59;47.26
44481;BME280;30184;42.018;23.670;2023-02-13T09:02:59;92940.72;;;3.60;45.21
44481;BME280;30184;42.018;23.670;2023-02-13T09:05:30;93061.06;;;4.89;44.81
44481;BME280;30184;42.018;23.670;2023-02-13T09:07:59;93030.44;;;4.74;44.66
44481;BME280;30184;42.018;23.670;2023-02-13T09:10:31;93050.78;;;4.95;44.62
44481;BME280;30184;42.018;23.670;2023-02-13T09:13:00;93053.78;;;5.12;44.79
44481;BME280;30184;42.018;23.670;2023-02-13T09:15:29;92980.19;;;4.78;44.20
44481;BME280;30184;42.018;23.670;2023-02-13T09:17:58;92862.84;;;3.98;44.38
44481;BME280;30184;42.018;23.670;2023-02-13T09:20:27;93042.66;;;5.37;43.88
44481;BME280;30184;42.018;23.670;2023-02-13T09:22:57;93040.53;;;5.49;43.43
44481;BME280;30184;42.018;23.670;2023-02-13T09:25:26;92874.72;;;4.20;43.26
44481;BME280;30184;42.018;23.670;2023-02-13T09:27:55;93036.69;;;5.73;42.92
44481;BME280;30184;42.018;23.670;2023-02-13T09:30:24;92892.34;;;4.18;42.67
44481;BME280;30184;42.018;23.670;2023-02-13T09:32:53;93020.78;;;5.91;42.68
44481;BME280;30184;42.018;23.670;2023-02-13T09:35:23;92867.50;;;4.96;42.47
44481;BME280;30184;42.018;23.670;2023-02-13T09:37:52;92936.47;;;5.60;41.79
44481;BME280;30184;42.018;23.670;2023-02-13T09:40:27;92918.28;;;5.54;41.21
44481;BME280;30184;42.018;23.670;2023-02-13T09:43:09;92998.69;;;6.08;41.59
44481;BME280;30184;42.018;23.670;2023-02-13T09:45:40;92994.44;;;6.07;41.32
44481;BME280;30184;42.018;23.670;2023-02-13T09:48:16;92922.94;;;5.27;41.28
44481;BME280;30184;42.018;23.670;2023-02-13T09:50:46;92837.63;;;5.31;40.96
44481;BME280;30184;42.018;23.670;2023-02-13T09:53:20;92986.44;;;6.48;41.20
44481;BME280;30184;42.018;23.670;2023-02-13T09:55:59;93006.28;;;6.66;40.94
44481;BME280;30184;42.018;23.670;2023-02-13T09:58:38;92977.88;;;6.76;39.57
44481;BME280;30184;42.018;23.670;2023-02-13T10:01:17;92832.56;;;5.59;39.43
44481;BME280;30184;42.018;23.670;2023-02-13T10:03:59;92971.81;;;6.89;39.27
44481;BME280;30184;42.018;23.670;2023-02-13T10:06:36;92963.41;;;6.94;39.25
44481;BME280;30184;42.018;23.670;2023-02-13T10:09:21;92956.91;;;7.02;39.22
44481;BME280;30184;42.018;23.670;2023-02-13T10:12:18;92948.19;;;7.20;39.12
44481;BME280;30184;42.018;23.670;2023-02-13T10:15:00;92943.63;;;7.31;38.95
44481;BME280;30184;42.018;23.670;2023-02-13T10:17:33;92929.81;;;7.39;37.74
44481;BME280;30184;42.018;23.670;2023-02-13T10:20:06;92799.09;;;6.34;36.35
44481;BME280;30184;42.018;23.670;2023-02-13T10:22:40;92922.56;;;7.54;37.19
44481;BME280;30184;42.018;23.670;2023-02-13T10:25:15;92893.16;;;7.42;36.47
44481;BME280;30184;42.018;23.670;2023-02-13T10:27:51;92911.03;;;7.64;36.18
44481;BME280;30184;42.018;23.670;2023-02-13T10:30:23;92918.00;;;7.65;36.05
44481;BME280;30184;42.018;23.670;2023-02-13T10:32:58;92955.13;;;7.75;36.10
44481;BME280;30184;42.018;23.670;2023-02-13T10:35:52;92886.78;;;7.09;35.64
44481;BME280;30184;42.018;23.670;2023-02-13T10:38:22;92790.44;;;6.59;34.79
44481;BME280;30184;42.018;23.670;2023-02-13T10:41:05;92903.81;;;7.90;33.89
44481;BME280;30184;42.018;23.670;2023-02-13T10:43:51;92898.50;;;8.04;34.39
44481;BME280;30184;42.018;23.670;2023-02-13T10:46:29;92870.25;;;7.98;34.51
44481;BME280;30184;42.018;23.670;2023-02-13T10:49:09;92833.75;;;7.45;34.39
44481;BME280;30184;42.018;23.670;2023-02-13T10:51:48;92880.31;;;8.01;34.54
44481;BME280;30184;42.018;23.670;2023-02-13T10:54:28;92903.72;;;7.65;34.34
44481;BME280;30184;42.018;23.670;2023-02-13T10:57:08;92756.28;;;6.81;33.38
44481;BME280;30184;42.018;23.670;2023-02-13T10:59:52;92821.56;;;7.76;33.14
44481;BME280;30184;42.018;23.670;2023-02-13T11:02:26;92861.38;;;7.97;33.02
44481;BME280;30184;42.018;23.670;2023-02-13T11:04:58;92877.69;;;8.15;33.70
44481;BME280;30184;42.018;23.670;2023-02-13T11:07:29;92980.00;;;8.09;33.96
44481;BME280;30184;42.018;23.670;2023-02-13T11:10:03;92895.78;;;8.04;34.12
44481;BME280;30184;42.018;23.670;2023-02-13T11:12:33;92856.47;;;8.35;33.59
44481;BME280;30184;42.018;23.670;2023-02-13T11:15:06;92806.56;;;8.00;33.65
44481;BME280;30184;42.018;23.670;2023-02-13T11:17:38;92790.28;;;7.82;33.65
44481;BME280;30184;42.018;23.670;2023-02-13T11:20:25;92847.63;;;8.41;34.33
44481;BME280;30184;42.018;23.670;2023-02-13T11:22:55;92805.78;;;7.93;34.11
44481;BME280;30184;42.018;23.670;2023-02-13T11:25:26;92839.91;;;8.47;33.84
44481;BME280;30184;42.018;23.670;2023-02-13T11:28:24;92829.09;;;8.43;33.27
44481;BME280;30184;42.018;23.670;2023-02-13T11:31:25;92824.84;;;8.49;33.65
44481;BME280;30184;42.018;23.670;2023-02-13T11:33:54;92718.53;;;7.96;33.01
44481;BME280;30184;42.018;23.670;2023-02-13T11:36:28;92819.81;;;8.58;32.74
44481;BME280;30184;42.018;23.670;2023-02-13T11:39:02;92805.88;;;8.56;32.76
44481;BME280;30184;42.018;23.670;2023-02-13T11:41:38;92804.34;;;8.59;33.05
44481;BME280;30184;42.018;23.670;2023-02-13T11:44:20;92648.75;;;6.79;32.37
44481;BME280;30184;42.018;23.670;2023-02-13T11:46:54;92806.66;;;8.57;32.05
44481;BME280;30184;42.018;23.670;2023-02-13T11:49:25;92786.19;;;8.67;32.91
44481;BME280;30184;42.018;23.670;2023-02-13T11:51:57;92747.50;;;8.06;32.07
44481;BME280;30184;42.018;23.670;2023-02-13T11:54:29;92781.91;;;8.83;32.87
44481;BME280;30184;42.018;23.670;2023-02-13T11:57:02;92777.28;;;8.87;32.55
44481;BME280;30184;42.018;23.670;2023-02-13T11:59:39;92769.53;;;8.93;32.26
44481;BME280;30184;42.018;23.670;2023-02-13T12:02:15;92770.69;;;8.92;31.68
44481;BME280;30184;42.018;23.670;2023-02-13T12:04:46;92625.84;;;7.77;32.31
44481;BME280;30184;42.018;23.670;2023-02-13T12:07:18;92758.69;;;8.96;31.38
44481;BME280;30184;42.018;23.670;2023-02-13T12:09:50;92715.81;;;8.63;31.64
44481;BME280;30184;42.018;23.670;2023-02-13T12:12:26;92755.22;;;8.89;31.94
44481;BME280;30184;42.018;23.670;2023-02-13T12:14:57;92748.25;;;8.95;31.70
44481;BME280;30184;42.018;23.670;2023-02-13T12:17:29;92670.63;;;8.49;31.35
44481;BME280;30184;42.018;23.670;2023-02-13T12:19:59;92745.13;;;9.07;31.42
44481;BME280;30184;42.018;23.670;2023-02-13T12:22:30;92741.66;;;9.07;31.06
44481;BME280;30184;42.018;23.670;2023-02-13T12:25:21;92694.97;;;8.49;30.97
44481;BME280;30184;42.018;23.670;2023-02-13T12:28:02;92699.19;;;8.68;30.56
44481;BME280;30184;42.018;23.670;2023-02-13T12:34:09;92722.28;;;9.15;30.99
44481;BME280;30184;42.018;23.670;2023-02-13T12:36:52;92721.50;;;9.11;30.93
44481;BME280;30184;42.018;23.670;2023-02-13T12:39:30;92681.75;;;8.87;31.10
44481;BME280;30184;42.018;23.670;2023-02-13T12:42:19;92714.56;;;9.17;31.04
44481;BME280;30184;42.018;23.670;2023-02-13T12:45:20;92717.22;;;9.21;30.99
44481;BME280;30184;42.018;23.670;2023-02-13T12:48:07;92612.31;;;7.88;31.29
44481;BME280;30184;42.018;23.670;2023-02-13T12:50:51;92730.88;;;8.89;31.27
44481;BME280;30184;42.018;23.670;2023-02-13T12:53:40;92711.38;;;9.33;30.97
44481;BME280;30184;42.018;23.670;2023-02-13T12:56:30;92616.06;;;8.72;31.20
44481;BME280;30184;42.018;23.670;2023-02-13T12:59:09;92610.28;;;8.63;31.07
44481;BME280;30184;42.018;23.670;2023-02-13T13:02:26;92691.28;;;9.27;30.79
44481;BME280;30184;42.018;23.670;2023-02-13T13:05:16;92550.91;;;8.13;30.76
44481;BME280;30184;42.018;23.670;2023-02-13T13:08:17;92693.59;;;9.28;31.14
44481;BME280;30184;42.018;23.670;2023-02-13T13:10:58;92700.56;;;9.29;30.96
44481;BME280;30184;42.018;23.670;2023-02-13T13:13:37;92696.69;;;9.27;30.74
44481;BME280;30184;42.018;23.670;2023-02-13T13:16:16;92691.69;;;9.25;31.09
44481;BME280;30184;42.018;23.670;2023-02-13T13:18:56;92685.50;;;9.25;31.11
44481;BME280;30184;42.018;23.670;2023-02-13T13:21:37;92680.13;;;9.14;31.12
44481;BME280;30184;42.018;23.670;2023-02-13T13:24:27;92685.13;;;9.19;31.38
44481;BME280;30184;42.018;23.670;2023-02-13T13:26:59;92720.72;;;9.21;31.73
44481;BME280;30184;42.018;23.670;2023-02-13T13:29:35;92680.09;;;9.21;31.46
44481;BME280;30184;42.018;23.670;2023-02-13T13:32:10;92671.22;;;9.17;31.83
44481;BME280;30184;42.018;23.670;2023-02-13T13:34:42;92543.25;;;7.27;31.84
44481;BME280;30184;42.018;23.670;2023-02-13T13:37:15;92695.94;;;9.19;32.05
44481;BME280;30184;42.018;23.670;2023-02-13T13:39:52;92570.94;;;8.48;32.13